createdAt,value
2023-03-27T00:03:26.329Z,13.30
2023-03-27T00:08:41.723Z,16.80
2023-03-27T00:13:54.997Z,16.00
2023-03-27T00:19:20.270Z,15.60
2023-03-27T00:25:04.444Z,16.50
2023-03-27T00:30:11.005Z,17.80
2023-03-27T00:35:14.814Z,17.20
2023-03-27T00:40:53.614Z,16.80
2023-03-27T00:46:21.948Z,14.80
2023-03-27T00:51:58.240Z,14.40
2023-03-27T00:57:22.051Z,12.90
2023-03-27T01:02:45.690Z,13.90
2023-03-27T01:08:02.690Z,14.20
2023-03-27T01:13:20.892Z,14.00
2023-03-27T01:18:41.107Z,14.20
2023-03-27T01:24:53.702Z,13.20
2023-03-27T01:30:24.590Z,13.20
2023-03-27T01:36:20.069Z,13.30
2023-03-27T01:41:55.631Z,12.20
2023-03-27T01:47:32.707Z,13.20
2023-03-27T01:52:42.244Z,13.40
2023-03-27T01:58:34.145Z,12.50
2023-03-27T02:04:20.801Z,13.60
2023-03-27T02:09:58.400Z,12.50
2023-03-27T02:15:43.695Z,13.00
2023-03-27T02:20:59.568Z,13.60
2023-03-27T02:26:03.957Z,12.90
2023-03-27T02:32:13.586Z,13.40
2023-03-27T02:38:23.630Z,12.70
2023-03-27T02:44:00.046Z,13.30
2023-03-27T02:49:36.569Z,18.00
2023-03-27T02:55:33.011Z,17.70
2023-03-27T03:00:51.932Z,16.70
2023-03-27T03:06:34.968Z,15.40
2023-03-27T03:11:57.528Z,17.00
2023-03-27T03:17:03.832Z,16.70
2023-03-27T03:22:15.634Z,16.30
2023-03-27T03:28:19.748Z,16.80
2023-03-27T03:33:57.297Z,18.00
2023-03-27T03:39:01.028Z,17.50
2023-03-27T03:44:24.778Z,15.80
2023-03-27T03:49:29.972Z,17.40
2023-03-27T03:54:54.003Z,17.10
2023-03-27T04:00:08.701Z,19.70
2023-03-27T04:05:22.791Z,19.00
2023-03-27T04:10:33.626Z,18.40
2023-03-27T04:15:52.923Z,17.90
2023-03-27T04:21:26.595Z,17.40
2023-03-27T04:27:08.427Z,18.30
2023-03-27T04:32:31.772Z,20.50
2023-03-27T04:38:17.525Z,18.50
2023-03-27T04:43:30.929Z,18.30
2023-03-27T04:49:39.516Z,18.50
2023-03-27T04:55:26.924Z,19.00
2023-03-27T05:00:44.038Z,18.30
2023-03-27T05:06:23.064Z,18.40
2023-03-27T05:12:26.642Z,19.40
2023-03-27T05:18:03.007Z,18.30
2023-03-27T05:24:01.086Z,21.80
2023-03-27T05:29:47.436Z,22.10
2023-03-27T05:35:20.498Z,19.20
2023-03-27T05:40:41.906Z,19.20
2023-03-27T05:46:42.814Z,18.90
2023-03-27T05:52:33.821Z,18.60
2023-03-27T05:58:11.589Z,18.50
2023-03-27T06:03:35.819Z,19.00
2023-03-27T06:08:52.995Z,19.00
2023-03-27T06:15:07.144Z,15.50
2023-03-27T06:20:52.018Z,13.90
2023-03-27T06:25:59.506Z,14.30
2023-03-27T06:31:39.334Z,15.00
2023-03-27T06:37:09.021Z,13.80
2023-03-27T06:43:17.528Z,12.70
2023-03-27T06:48:36.298Z,12.40
2023-03-27T06:53:55.297Z,12.90
2023-03-27T06:59:09.166Z,13.50
2023-03-27T07:04:16.853Z,13.30
2023-03-27T07:09:41.076Z,12.90
2023-03-27T07:15:36.500Z,12.20
2023-03-27T07:20:40.488Z,12.40
2023-03-27T07:25:53.425Z,11.70
2023-03-27T07:36:31.972Z,7.50
2023-03-27T07:42:02.528Z,6.50
2023-03-27T07:47:35.168Z,5.90
2023-03-27T07:53:34.093Z,6.10
2023-03-27T07:58:57.821Z,5.60
2023-03-27T08:04:07.591Z,5.40
2023-03-27T08:09:42.123Z,5.20
2023-03-27T08:15:09.950Z,4.90
2023-03-27T08:20:33.995Z,4.80
2023-03-27T08:25:50.385Z,4.70
2023-03-27T08:31:16.456Z,4.00
2023-03-27T08:36:53.931Z,3.70
2023-03-27T08:42:34.337Z,3.60
2023-03-27T08:47:52.344Z,3.70
2023-03-27T08:54:06.338Z,3.50
2023-03-27T08:59:33.167Z,3.60
2023-03-27T09:05:35.192Z,3.60
2023-03-27T09:10:50.971Z,3.40
2023-03-27T09:17:20.013Z,5.00
2023-03-27T09:23:34.673Z,4.70
2023-03-27T09:29:39.720Z,4.00
2023-03-27T09:35:22.460Z,5.10
2023-03-27T09:41:10.359Z,3.60
2023-03-27T09:46:20.309Z,3.60
2023-03-27T09:51:46.198Z,3.20
2023-03-27T09:57:16.579Z,2.70
2023-03-27T10:02:30.844Z,3.50
2023-03-27T10:07:40.774Z,2.90
2023-03-27T10:13:26.888Z,3.30
2023-03-27T10:18:50.656Z,3.50
2023-03-27T10:24:44.280Z,3.00
2023-03-27T10:30:45.435Z,3.20
2023-03-27T10:37:00.787Z,3.40
2023-03-27T10:42:48.627Z,3.10
2023-03-27T10:48:39.013Z,2.70
2023-03-27T10:59:49.225Z,2.80
2023-03-27T11:05:43.440Z,2.70
2023-03-27T11:11:28.396Z,2.90
2023-03-27T11:16:59.673Z,3.00
2023-03-27T11:23:02.077Z,3.20
2023-03-27T11:28:34.122Z,3.50
2023-03-27T11:34:28.370Z,3.30
2023-03-27T11:40:00.465Z,3.40
2023-03-27T11:46:24.828Z,4.00
2023-03-27T11:57:21.070Z,3.70
2023-03-27T12:03:31.909Z,3.70
2023-03-27T12:09:44.310Z,4.40
2023-03-27T12:15:58.348Z,3.70
2023-03-27T12:21:29.437Z,3.40
2023-03-27T12:28:04.925Z,4.10
2023-03-27T12:34:20.031Z,3.30
2023-03-27T12:39:56.823Z,2.80
2023-03-27T12:45:28.885Z,2.90
2023-03-27T12:51:03.205Z,2.90
2023-03-27T12:57:10.118Z,3.60
2023-03-27T13:03:37.072Z,3.30
2023-03-27T13:09:34.375Z,3.70
2023-03-27T13:15:47.597Z,3.80
2023-03-27T13:22:16.835Z,3.50
2023-03-27T13:28:16.264Z,3.20
2023-03-27T13:34:32.111Z,3.10
2023-03-27T13:40:41.417Z,3.50
2023-03-27T13:46:41.015Z,3.00
2023-03-27T13:52:51.081Z,3.60
2023-03-27T13:58:49.637Z,3.40
2023-03-27T14:04:47.540Z,2.70
2023-03-27T14:10:36.694Z,2.70
2023-03-27T14:16:42.426Z,2.20
2023-03-27T14:21:56.477Z,3.00
2023-03-27T14:27:41.436Z,2.40
2023-03-27T14:33:05.190Z,2.80
2023-03-27T14:38:25.010Z,2.90
2023-03-27T14:44:13.627Z,2.80
2023-03-27T14:49:36.059Z,2.90
2023-03-27T14:54:55.037Z,2.60
2023-03-27T15:00:22.427Z,2.00
2023-03-27T15:06:27.165Z,2.00
2023-03-27T15:12:25.784Z,2.50
2023-03-27T15:17:43.196Z,2.20
2023-03-27T15:23:26.365Z,2.40
2023-03-27T15:28:41.629Z,2.80
2023-03-27T15:34:51.838Z,1.80
2023-03-27T15:40:58.564Z,2.70
2023-03-27T15:46:42.730Z,2.90
2023-03-27T15:52:47.553Z,2.80
2023-03-27T15:58:35.979Z,2.10
2023-03-27T16:03:58.989Z,2.30
2023-03-27T16:10:12.492Z,2.10
2023-03-27T16:16:21.941Z,3.50
2023-03-27T16:22:26.367Z,3.20
2023-03-27T16:28:33.424Z,2.70
2023-03-27T16:33:45.292Z,2.70
2023-03-27T16:39:11.803Z,2.30
2023-03-27T16:44:41.284Z,2.90
2023-03-27T16:50:37.600Z,2.80
2023-03-27T16:56:18.742Z,2.50
2023-03-27T17:02:37.317Z,3.30
2023-03-27T17:08:52.554Z,3.40
2023-03-27T17:33:34.191Z,6.10
2023-03-27T17:39:41.287Z,5.20
2023-03-27T17:45:30.124Z,6.20
2023-03-27T17:51:53.198Z,4.80
2023-03-27T17:58:16.555Z,5.70
2023-03-27T18:04:58.275Z,5.40
2023-03-27T18:10:34.763Z,5.00
2023-03-27T18:16:21.809Z,4.20
2023-03-27T18:22:09.934Z,3.90
2023-03-27T18:28:01.505Z,3.80
2023-03-27T18:34:18.399Z,3.10
2023-03-27T18:39:47.448Z,5.50
2023-03-27T18:46:03.110Z,4.20
2023-03-27T18:57:38.933Z,3.00
2023-03-27T19:03:18.339Z,2.50
2023-03-27T19:08:33.562Z,3.30
2023-03-27T19:20:31.348Z,3.40
2023-03-27T19:25:55.594Z,2.80
2023-03-27T19:31:59.720Z,3.00
2023-03-27T19:38:10.513Z,3.20
2023-03-27T19:43:25.809Z,3.40
2023-03-27T19:49:02.453Z,11.70
2023-03-27T19:54:40.743Z,5.20
2023-03-27T20:00:58.907Z,4.80
2023-03-27T20:06:48.226Z,3.10
2023-03-27T20:12:57.824Z,2.80
2023-03-27T20:18:42.655Z,2.90
2023-03-27T20:24:39.748Z,3.70
2023-03-27T20:30:15.030Z,4.40
2023-03-27T20:35:37.881Z,3.10
2023-03-27T20:41:13.781Z,3.30
2023-03-27T20:46:37.603Z,3.30
2023-03-27T20:52:15.482Z,2.80
2023-03-27T20:58:11.254Z,3.30
2023-03-27T21:04:35.421Z,3.20
2023-03-27T21:10:15.592Z,3.30
2023-03-27T21:15:55.716Z,3.80
2023-03-27T21:21:39.985Z,3.60
2023-03-27T21:27:26.861Z,4.10
2023-03-27T21:32:53.767Z,4.10
2023-03-27T21:38:53.786Z,4.30
2023-03-27T21:44:11.511Z,4.50
2023-03-27T21:49:46.523Z,4.40
2023-03-27T21:55:40.505Z,4.90
2023-03-27T22:01:45.106Z,5.70
2023-03-27T22:07:14.153Z,5.80
2023-03-27T22:12:46.587Z,6.30
2023-03-27T22:18:50.710Z,7.40
2023-03-27T22:24:54.877Z,7.00
2023-03-27T22:30:18.824Z,6.10
2023-03-27T22:35:38.043Z,6.10
2023-03-27T22:41:01.760Z,5.70
2023-03-27T22:46:34.559Z,5.90
2023-03-27T22:51:41.123Z,5.90
2023-03-27T22:57:45.124Z,6.10
2023-03-27T23:03:45.043Z,6.30
2023-03-27T23:09:41.996Z,6.90
2023-03-27T23:15:30.231Z,7.00
2023-03-27T23:20:34.118Z,7.30
2023-03-27T23:25:42.561Z,6.30
2023-03-27T23:30:58.890Z,6.30
2023-03-27T23:36:10.514Z,6.40
2023-03-27T23:41:15.460Z,6.70
2023-03-27T23:46:19.063Z,7.80
2023-03-27T23:51:22.463Z,8.30
2023-03-27T23:56:25.905Z,8.40
